sensor_id;sensor_type;location;lat;lon;timestamp;P1;durP1;ratioP1;P2;durP2;ratioP2
11135;SDS011;5622;50.840;4.948;2023-04-06T00:02:02;26.20;;;15.50;;
11135;SDS011;5622;50.840;4.948;2023-04-06T00:04:29;25.93;;;15.33;;
11135;SDS011;5622;50.840;4.948;2023-04-06T00:06:58;25.50;;;15.43;;
11135;SDS011;5622;50.840;4.948;2023-04-06T00:09:25;23.63;;;14.70;;
11135;SDS011;5622;50.840;4.948;2023-04-06T00:11:52;24.30;;;15.20;;
11135;SDS011;5622;50.840;4.948;2023-04-06T00:14:20;23.53;;;15.57;;
11135;SDS011;5622;50.840;4.948;2023-04-06T00:16:47;26.67;;;15.20;;
11135;SDS011;5622;50.840;4.948;2023-04-06T00:19:14;24.40;;;14.67;;
11135;SDS011;5622;50.840;4.948;2023-04-06T00:21:41;22.27;;;14.20;;
11135;SDS011;5622;50.840;4.948;2023-04-06T00:24:10;26.93;;;15.07;;
11135;SDS011;5622;50.840;4.948;2023-04-06T00:26:37;25.40;;;15.53;;
11135;SDS011;5622;50.840;4.948;2023-04-06T00:29:04;22.77;;;14.13;;
11135;SDS011;5622;50.840;4.948;2023-04-06T00:31:31;23.93;;;14.80;;
11135;SDS011;5622;50.840;4.948;2023-04-06T00:33:59;24.87;;;14.83;;
11135;SDS011;5622;50.840;4.948;2023-04-06T00:36:26;22.60;;;13.93;;
11135;SDS011;5622;50.840;4.948;2023-04-06T00:38:53;26.50;;;15.53;;
11135;SDS011;5622;50.840;4.948;2023-04-06T00:41:21;23.67;;;14.07;;
11135;SDS011;5622;50.840;4.948;2023-04-06T00:43:49;25.57;;;15.00;;
11135;SDS011;5622;50.840;4.948;2023-04-06T00:46:16;22.53;;;14.47;;
11135;SDS011;5622;50.840;4.948;2023-04-06T00:48:43;24.33;;;14.20;;
11135;SDS011;5622;50.840;4.948;2023-04-06T00:51:10;23.53;;;13.67;;
11135;SDS011;5622;50.840;4.948;2023-04-06T00:53:37;21.57;;;13.13;;
11135;SDS011;5622;50.840;4.948;2023-04-06T00:56:05;19.00;;;11.73;;
11135;SDS011;5622;50.840;4.948;2023-04-06T00:58:36;18.73;;;12.07;;
11135;SDS011;5622;50.840;4.948;2023-04-06T01:01:04;24.07;;;13.20;;
11135;SDS011;5622;50.840;4.948;2023-04-06T01:03:31;20.10;;;12.47;;
11135;SDS011;5622;50.840;4.948;2023-04-06T01:05:58;22.43;;;13.50;;
11135;SDS011;5622;50.840;4.948;2023-04-06T01:08:25;25.70;;;13.97;;
11135;SDS011;5622;50.840;4.948;2023-04-06T01:10:54;22.03;;;13.50;;
11135;SDS011;5622;50.840;4.948;2023-04-06T01:13:21;24.87;;;13.60;;
11135;SDS011;5622;50.840;4.948;2023-04-06T01:15:49;23.53;;;13.70;;
11135;SDS011;5622;50.840;4.948;2023-04-06T01:18:17;25.07;;;13.37;;
11135;SDS011;5622;50.840;4.948;2023-04-06T01:20:44;20.30;;;13.67;;
11135;SDS011;5622;50.840;4.948;2023-04-06T01:23:13;21.87;;;12.97;;
11135;SDS011;5622;50.840;4.948;2023-04-06T01:25:40;21.20;;;13.80;;
11135;SDS011;5622;50.840;4.948;2023-04-06T01:28:07;22.53;;;14.10;;
11135;SDS011;5622;50.840;4.948;2023-04-06T01:30:34;21.77;;;14.63;;
11135;SDS011;5622;50.840;4.948;2023-04-06T01:33:01;23.77;;;14.23;;
11135;SDS011;5622;50.840;4.948;2023-04-06T01:35:29;22.03;;;13.13;;
11135;SDS011;5622;50.840;4.948;2023-04-06T01:37:57;24.90;;;13.20;;
11135;SDS011;5622;50.840;4.948;2023-04-06T01:40:25;23.80;;;14.40;;
11135;SDS011;5622;50.840;4.948;2023-04-06T01:42:52;21.53;;;13.67;;
11135;SDS011;5622;50.840;4.948;2023-04-06T01:45:20;25.10;;;14.37;;
11135;SDS011;5622;50.840;4.948;2023-04-06T01:47:47;22.43;;;14.20;;
11135;SDS011;5622;50.840;4.948;2023-04-06T01:50:14;27.27;;;15.97;;
11135;SDS011;5622;50.840;4.948;2023-04-06T01:52:41;24.00;;;15.23;;
11135;SDS011;5622;50.840;4.948;2023-04-06T01:55:09;25.10;;;15.13;;
11135;SDS011;5622;50.840;4.948;2023-04-06T01:57:37;23.70;;;13.70;;
11135;SDS011;5622;50.840;4.948;2023-04-06T02:00:05;26.30;;;15.53;;
11135;SDS011;5622;50.840;4.948;2023-04-06T02:02:33;25.40;;;15.30;;
11135;SDS011;5622;50.840;4.948;2023-04-06T02:05:00;20.13;;;13.40;;
11135;SDS011;5622;50.840;4.948;2023-04-06T02:07:27;24.40;;;14.83;;
11135;SDS011;5622;50.840;4.948;2023-04-06T02:09:55;23.80;;;15.00;;
11135;SDS011;5622;50.840;4.948;2023-04-06T02:12:22;22.83;;;13.87;;
11135;SDS011;5622;50.840;4.948;2023-04-06T02:14:51;23.63;;;13.97;;
11135;SDS011;5622;50.840;4.948;2023-04-06T02:17:18;22.43;;;14.87;;
11135;SDS011;5622;50.840;4.948;2023-04-06T02:19:45;26.93;;;15.47;;
11135;SDS011;5622;50.840;4.948;2023-04-06T02:22:12;22.57;;;14.57;;
11135;SDS011;5622;50.840;4.948;2023-04-06T02:24:39;23.20;;;14.80;;
11135;SDS011;5622;50.840;4.948;2023-04-06T02:27:06;25.90;;;14.83;;
11135;SDS011;5622;50.840;4.948;2023-04-06T02:29:34;22.43;;;13.93;;
11135;SDS011;5622;50.840;4.948;2023-04-06T02:32:02;24.00;;;14.20;;
11135;SDS011;5622;50.840;4.948;2023-04-06T02:34:30;28.27;;;14.77;;
11135;SDS011;5622;50.840;4.948;2023-04-06T02:36:57;23.00;;;14.47;;
11135;SDS011;5622;50.840;4.948;2023-04-06T02:39:24;22.63;;;14.50;;
11135;SDS011;5622;50.840;4.948;2023-04-06T02:41:51;24.57;;;13.90;;
11135;SDS011;5622;50.840;4.948;2023-04-06T02:44:18;23.83;;;14.13;;
11135;SDS011;5622;50.840;4.948;2023-04-06T02:46:46;23.50;;;13.67;;
11135;SDS011;5622;50.840;4.948;2023-04-06T02:49:14;19.60;;;13.57;;
11135;SDS011;5622;50.840;4.948;2023-04-06T02:51:41;20.03;;;12.73;;
11135;SDS011;5622;50.840;4.948;2023-04-06T02:54:08;19.63;;;13.17;;
11135;SDS011;5622;50.840;4.948;2023-04-06T02:56:36;22.17;;;13.50;;
11135;SDS011;5622;50.840;4.948;2023-04-06T02:59:03;24.20;;;14.07;;
11135;SDS011;5622;50.840;4.948;2023-04-06T03:01:30;26.20;;;15.00;;
11135;SDS011;5622;50.840;4.948;2023-04-06T03:03:57;23.40;;;13.53;;
11135;SDS011;5622;50.840;4.948;2023-04-06T03:06:26;20.03;;;12.83;;
11135;SDS011;5622;50.840;4.948;2023-04-06T03:08:53;20.83;;;13.33;;
11135;SDS011;5622;50.840;4.948;2023-04-06T03:11:20;24.23;;;14.27;;
11135;SDS011;5622;50.840;4.948;2023-04-06T03:13:47;24.30;;;13.70;;
11135;SDS011;5622;50.840;4.948;2023-04-06T03:16:14;21.83;;;14.03;;
11135;SDS011;5622;50.840;4.948;2023-04-06T03:18:42;17.83;;;12.77;;
11135;SDS011;5622;50.840;4.948;2023-04-06T03:21:09;23.50;;;14.43;;
11135;SDS011;5622;50.840;4.948;2023-04-06T03:23:38;25.00;;;14.00;;
11135;SDS011;5622;50.840;4.948;2023-04-06T03:26:05;22.80;;;13.40;;
11135;SDS011;5622;50.840;4.948;2023-04-06T03:28:32;19.60;;;13.03;;
11135;SDS011;5622;50.840;4.948;2023-04-06T03:31:00;21.57;;;13.90;;
11135;SDS011;5622;50.840;4.948;2023-04-06T03:33:27;20.83;;;13.30;;
11135;SDS011;5622;50.840;4.948;2023-04-06T03:35:54;18.80;;;13.03;;
11135;SDS011;5622;50.840;4.948;2023-04-06T03:38:21;22.37;;;13.30;;
11135;SDS011;5622;50.840;4.948;2023-04-06T03:40:50;21.17;;;12.90;;
11135;SDS011;5622;50.840;4.948;2023-04-06T03:43:17;19.13;;;12.67;;
11135;SDS011;5622;50.840;4.948;2023-04-06T03:45:44;22.03;;;13.33;;
11135;SDS011;5622;50.840;4.948;2023-04-06T03:48:12;20.67;;;12.60;;
11135;SDS011;5622;50.840;4.948;2023-04-06T03:50:39;21.67;;;13.70;;
11135;SDS011;5622;50.840;4.948;2023-04-06T03:53:06;22.33;;;14.57;;
11135;SDS011;5622;50.840;4.948;2023-04-06T03:55:33;20.60;;;13.57;;
11135;SDS011;5622;50.840;4.948;2023-04-06T03:58:02;22.87;;;13.37;;
11135;SDS011;5622;50.840;4.948;2023-04-06T04:00:32;22.87;;;13.87;;
11135;SDS011;5622;50.840;4.948;2023-04-06T04:02:59;21.27;;;13.23;;
11135;SDS011;5622;50.840;4.948;2023-04-06T04:05:27;20.30;;;13.20;;
11135;SDS011;5622;50.840;4.948;2023-04-06T04:07:54;18.53;;;11.83;;
11135;SDS011;5622;50.840;4.948;2023-04-06T04:10:22;19.23;;;12.80;;
11135;SDS011;5622;50.840;4.948;2023-04-06T04:12:49;22.37;;;13.23;;
11135;SDS011;5622;50.840;4.948;2023-04-06T04:15:17;22.73;;;12.87;;
11135;SDS011;5622;50.840;4.948;2023-04-06T04:17:44;23.13;;;13.03;;
11135;SDS011;5622;50.840;4.948;2023-04-06T04:20:14;18.97;;;12.70;;
11135;SDS011;5622;50.840;4.948;2023-04-06T04:22:41;21.50;;;13.77;;
11135;SDS011;5622;50.840;4.948;2023-04-06T04:25:09;20.33;;;12.70;;
11135;SDS011;5622;50.840;4.948;2023-04-06T04:27:36;20.83;;;13.07;;
11135;SDS011;5622;50.840;4.948;2023-04-06T04:30:03;20.80;;;12.73;;
11135;SDS011;5622;50.840;4.948;2023-04-06T04:32:33;18.93;;;12.40;;
11135;SDS011;5622;50.840;4.948;2023-04-06T04:35:00;18.27;;;12.27;;
11135;SDS011;5622;50.840;4.948;2023-04-06T04:37:27;18.50;;;11.17;;
11135;SDS011;5622;50.840;4.948;2023-04-06T04:39:55;18.60;;;11.60;;
11135;SDS011;5622;50.840;4.948;2023-04-06T04:42:22;18.27;;;11.90;;
11135;SDS011;5622;50.840;4.948;2023-04-06T04:44:49;19.83;;;10.57;;
11135;SDS011;5622;50.840;4.948;2023-04-06T04:47:16;17.70;;;12.37;;
11135;SDS011;5622;50.840;4.948;2023-04-06T04:49:45;19.03;;;11.37;;
11135;SDS011;5622;50.840;4.948;2023-04-06T04:52:12;18.83;;;12.10;;
11135;SDS011;5622;50.840;4.948;2023-04-06T04:54:39;16.87;;;11.10;;
11135;SDS011;5622;50.840;4.948;2023-04-06T04:57:07;20.70;;;12.70;;
11135;SDS011;5622;50.840;4.948;2023-04-06T04:59:34;19.93;;;12.83;;
11135;SDS011;5622;50.840;4.948;2023-04-06T05:02:02;19.17;;;11.47;;
11135;SDS011;5622;50.840;4.948;2023-04-06T05:04:29;16.33;;;11.47;;
11135;SDS011;5622;50.840;4.948;2023-04-06T05:07:04;19.93;;;11.57;;
11135;SDS011;5622;50.840;4.948;2023-04-06T05:09:32;21.80;;;12.57;;
11135;SDS011;5622;50.840;4.948;2023-04-06T05:11:59;19.70;;;12.20;;
11135;SDS011;5622;50.840;4.948;2023-04-06T05:14:27;16.70;;;12.27;;
11135;SDS011;5622;50.840;4.948;2023-04-06T05:16:54;21.37;;;13.73;;
11135;SDS011;5622;50.840;4.948;2023-04-06T05:19:22;22.57;;;13.20;;
11135;SDS011;5622;50.840;4.948;2023-04-06T05:21:49;20.40;;;13.17;;
11135;SDS011;5622;50.840;4.948;2023-04-06T05:24:17;17.80;;;12.70;;
11135;SDS011;5622;50.840;4.948;2023-04-06T05:26:45;21.47;;;12.20;;
11135;SDS011;5622;50.840;4.948;2023-04-06T05:29:12;18.27;;;11.83;;
11135;SDS011;5622;50.840;4.948;2023-04-06T05:31:40;21.77;;;12.37;;
11135;SDS011;5622;50.840;4.948;2023-04-06T05:34:07;19.53;;;12.43;;
11135;SDS011;5622;50.840;4.948;2023-04-06T05:36:34;24.07;;;12.60;;
11135;SDS011;5622;50.840;4.948;2023-04-06T05:39:02;18.60;;;12.40;;
11135;SDS011;5622;50.840;4.948;2023-04-06T05:41:30;20.60;;;12.27;;
11135;SDS011;5622;50.840;4.948;2023-04-06T05:43:57;18.23;;;12.30;;
11135;SDS011;5622;50.840;4.948;2023-04-06T05:46:25;17.53;;;11.67;;
11135;SDS011;5622;50.840;4.948;2023-04-06T05:48:52;20.80;;;12.70;;
11135;SDS011;5622;50.840;4.948;2023-04-06T05:51:19;23.53;;;12.20;;
11135;SDS011;5622;50.840;4.948;2023-04-06T05:53:46;20.60;;;12.70;;
11135;SDS011;5622;50.840;4.948;2023-04-06T05:56:13;20.80;;;13.10;;
11135;SDS011;5622;50.840;4.948;2023-04-06T05:58:43;18.43;;;12.23;;
11135;SDS011;5622;50.840;4.948;2023-04-06T06:01:10;19.97;;;12.50;;
11135;SDS011;5622;50.840;4.948;2023-04-06T06:03:37;21.63;;;11.77;;
11135;SDS011;5622;50.840;4.948;2023-04-06T06:06:04;20.80;;;12.97;;
11135;SDS011;5622;50.840;4.948;2023-04-06T06:08:31;20.83;;;13.03;;
11135;SDS011;5622;50.840;4.948;2023-04-06T06:10:59;20.00;;;12.67;;
11135;SDS011;5622;50.840;4.948;2023-04-06T06:13:26;18.43;;;10.90;;
11135;SDS011;5622;50.840;4.948;2023-04-06T06:15:55;19.23;;;12.23;;
11135;SDS011;5622;50.840;4.948;2023-04-06T06:18:22;19.47;;;12.10;;
11135;SDS011;5622;50.840;4.948;2023-04-06T06:20:49;18.60;;;11.27;;
11135;SDS011;5622;50.840;4.948;2023-04-06T06:23:16;18.93;;;11.47;;
11135;SDS011;5622;50.840;4.948;2023-04-06T06:25:43;18.80;;;11.67;;
11135;SDS011;5622;50.840;4.948;2023-04-06T06:28:10;20.07;;;12.47;;
11135;SDS011;5622;50.840;4.948;2023-04-06T06:30:37;18.30;;;11.07;;
11135;SDS011;5622;50.840;4.948;2023-04-06T06:33:06;16.80;;;11.77;;
11135;SDS011;5622;50.840;4.948;2023-04-06T06:35:33;18.03;;;11.90;;
11135;SDS011;5622;50.840;4.948;2023-04-06T06:38:00;21.37;;;12.00;;
11135;SDS011;5622;50.840;4.948;2023-04-06T06:40:27;18.00;;;10.67;;
11135;SDS011;5622;50.840;4.948;2023-04-06T06:42:55;21.33;;;11.83;;
11135;SDS011;5622;50.840;4.948;2023-04-06T06:45:22;15.47;;;10.80;;
11135;SDS011;5622;50.840;4.948;2023-04-06T06:47:50;14.97;;;10.07;;
11135;SDS011;5622;50.840;4.948;2023-04-06T06:50:19;21.70;;;11.00;;
11135;SDS011;5622;50.840;4.948;2023-04-06T06:52:46;18.90;;;11.40;;
11135;SDS011;5622;50.840;4.948;2023-04-06T06:55:13;19.17;;;11.40;;
11135;SDS011;5622;50.840;4.948;2023-04-06T06:57:40;21.90;;;12.13;;
11135;SDS011;5622;50.840;4.948;2023-04-06T07:00:08;18.93;;;11.77;;
11135;SDS011;5622;50.840;4.948;2023-04-06T07:02:38;17.83;;;12.10;;
11135;SDS011;5622;50.840;4.948;2023-04-06T07:05:05;19.57;;;10.57;;
11135;SDS011;5622;50.840;4.948;2023-04-06T07:07:34;17.37;;;10.50;;
11135;SDS011;5622;50.840;4.948;2023-04-06T07:10:01;16.40;;;10.80;;
11135;SDS011;5622;50.840;4.948;2023-04-06T07:12:29;19.07;;;11.30;;
11135;SDS011;5622;50.840;4.948;2023-04-06T07:14:56;21.50;;;12.00;;
11135;SDS011;5622;50.840;4.948;2023-04-06T07:17:23;21.70;;;11.23;;
11135;SDS011;5622;50.840;4.948;2023-04-06T07:19:51;17.20;;;10.37;;
11135;SDS011;5622;50.840;4.948;2023-04-06T07:22:18;18.13;;;10.53;;
11135;SDS011;5622;50.840;4.948;2023-04-06T07:24:46;19.27;;;11.30;;
11135;SDS011;5622;50.840;4.948;2023-04-06T07:27:14;18.63;;;10.67;;
11135;SDS011;5622;50.840;4.948;2023-04-06T07:29:41;21.17;;;12.20;;
11135;SDS011;5622;50.840;4.948;2023-04-06T07:32:08;17.80;;;11.00;;
11135;SDS011;5622;50.840;4.948;2023-04-06T07:34:36;16.97;;;11.10;;
11135;SDS011;5622;50.840;4.948;2023-04-06T07:37:03;18.27;;;11.13;;
11135;SDS011;5622;50.840;4.948;2023-04-06T07:39:30;19.43;;;11.53;;
11135;SDS011;5622;50.840;4.948;2023-04-06T07:41:59;17.93;;;11.20;;
11135;SDS011;5622;50.840;4.948;2023-04-06T07:44:26;16.43;;;10.23;;
11135;SDS011;5622;50.840;4.948;2023-04-06T07:46:53;15.13;;;10.07;;
11135;SDS011;5622;50.840;4.948;2023-04-06T07:49:21;21.73;;;11.67;;
11135;SDS011;5622;50.840;4.948;2023-04-06T07:51:48;19.43;;;10.73;;
11135;SDS011;5622;50.840;4.948;2023-04-06T07:54:15;17.50;;;11.00;;
11135;SDS011;5622;50.840;4.948;2023-04-06T07:56:42;18.70;;;11.23;;
11135;SDS011;5622;50.840;4.948;2023-04-06T07:59:11;19.70;;;11.40;;
11135;SDS011;5622;50.840;4.948;2023-04-06T08:01:38;19.67;;;10.67;;
11135;SDS011;5622;50.840;4.948;2023-04-06T08:04:05;18.80;;;11.17;;
11135;SDS011;5622;50.840;4.948;2023-04-06T08:06:33;18.40;;;11.20;;
11135;SDS011;5622;50.840;4.948;2023-04-06T08:09:01;18.90;;;11.23;;
11135;SDS011;5622;50.840;4.948;2023-04-06T08:11:28;18.43;;;11.00;;
11135;SDS011;5622;50.840;4.948;2023-04-06T08:13:56;17.53;;;10.97;;
11135;SDS011;5622;50.840;4.948;2023-04-06T08:16:25;18.33;;;11.77;;
11135;SDS011;5622;50.840;4.948;2023-04-06T08:18:54;18.37;;;12.23;;
11135;SDS011;5622;50.840;4.948;2023-04-06T08:21:22;16.37;;;10.83;;
11135;SDS011;5622;50.840;4.948;2023-04-06T08:23:49;18.57;;;12.43;;
11135;SDS011;5622;50.840;4.948;2023-04-06T08:26:16;20.97;;;12.33;;
11135;SDS011;5622;50.840;4.948;2023-04-06T08:28:43;19.17;;;12.20;;
11135;SDS011;5622;50.840;4.948;2023-04-06T08:31:10;22.13;;;12.77;;
11135;SDS011;5622;50.840;4.948;2023-04-06T08:33:39;18.77;;;12.30;;
11135;SDS011;5622;50.840;4.948;2023-04-06T08:36:07;20.13;;;11.87;;
11135;SDS011;5622;50.840;4.948;2023-04-06T08:38:35;19.47;;;11.83;;
11135;SDS011;5622;50.840;4.948;2023-04-06T08:41:06;19.00;;;12.17;;
11135;SDS011;5622;50.840;4.948;2023-04-06T08:43:36;19.63;;;11.20;;
11135;SDS011;5622;50.840;4.948;2023-04-06T08:46:08;18.93;;;12.23;;
11135;SDS011;5622;50.840;4.948;2023-04-06T08:48:36;17.13;;;10.80;;
11135;SDS011;5622;50.840;4.948;2023-04-06T08:51:07;16.17;;;10.20;;
11135;SDS011;5622;50.840;4.948;2023-04-06T08:53:34;16.00;;;9.83;;
11135;SDS011;5622;50.840;4.948;2023-04-06T08:56:02;14.20;;;9.63;;
11135;SDS011;5622;50.840;4.948;2023-04-06T08:58:32;15.17;;;9.97;;
11135;SDS011;5622;50.840;4.948;2023-04-06T09:01:00;18.07;;;10.60;;
11135;SDS011;5622;50.840;4.948;2023-04-06T09:03:30;13.40;;;9.10;;
11135;SDS011;5622;50.840;4.948;2023-04-06T09:06:01;14.23;;;9.60;;
11135;SDS011;5622;50.840;4.948;2023-04-06T09:08:29;18.33;;;11.00;;
11135;SDS011;5622;50.840;4.948;2023-04-06T09:10:56;13.43;;;9.30;;
11135;SDS011;5622;50.840;4.948;2023-04-06T09:13:23;15.20;;;10.50;;
11135;SDS011;5622;50.840;4.948;2023-04-06T09:15:58;15.00;;;10.60;;
11135;SDS011;5622;50.840;4.948;2023-04-06T09:18:29;14.77;;;10.73;;
11135;SDS011;5622;50.840;4.948;2023-04-06T09:20:57;17.60;;;11.33;;
11135;SDS011;5622;50.840;4.948;2023-04-06T09:23:26;19.27;;;11.90;;
11135;SDS011;5622;50.840;4.948;2023-04-06T09:26:04;18.60;;;12.53;;
11135;SDS011;5622;50.840;4.948;2023-04-06T09:28:45;19.90;;;11.97;;
11135;SDS011;5622;50.840;4.948;2023-04-06T09:31:14;19.07;;;11.77;;
11135;SDS011;5622;50.840;4.948;2023-04-06T09:33:43;18.80;;;11.13;;
11135;SDS011;5622;50.840;4.948;2023-04-06T09:36:12;20.23;;;11.80;;
11135;SDS011;5622;50.840;4.948;2023-04-06T09:38:52;18.03;;;11.40;;
11135;SDS011;5622;50.840;4.948;2023-04-06T09:41:21;18.23;;;11.40;;
11135;SDS011;5622;50.840;4.948;2023-04-06T09:43:49;24.37;;;12.37;;
11135;SDS011;5622;50.840;4.948;2023-04-06T09:46:17;18.40;;;12.73;;
11135;SDS011;5622;50.840;4.948;2023-04-06T09:48:48;19.50;;;12.40;;
11135;SDS011;5622;50.840;4.948;2023-04-06T09:51:16;18.70;;;12.10;;
11135;SDS011;5622;50.840;4.948;2023-04-06T09:53:45;18.37;;;12.73;;
11135;SDS011;5622;50.840;4.948;2023-04-06T09:56:20;23.40;;;13.57;;
11135;SDS011;5622;50.840;4.948;2023-04-06T09:58:55;18.53;;;12.80;;
11135;SDS011;5622;50.840;4.948;2023-04-06T10:01:28;20.50;;;13.20;;
11135;SDS011;5622;50.840;4.948;2023-04-06T10:04:03;19.67;;;12.47;;
11135;SDS011;5622;50.840;4.948;2023-04-06T10:06:38;23.33;;;12.17;;
11135;SDS011;5622;50.840;4.948;2023-04-06T10:09:07;18.57;;;12.67;;
11135;SDS011;5622;50.840;4.948;2023-04-06T10:11:34;19.87;;;12.80;;
11135;SDS011;5622;50.840;4.948;2023-04-06T10:14:01;17.60;;;12.13;;
11135;SDS011;5622;50.840;4.948;2023-04-06T10:16:29;19.67;;;11.90;;
11135;SDS011;5622;50.840;4.948;2023-04-06T10:18:58;16.97;;;12.27;;
11135;SDS011;5622;50.840;4.948;2023-04-06T10:21:31;18.70;;;12.40;;
11135;SDS011;5622;50.840;4.948;2023-04-06T10:24:00;22.07;;;12.37;;
11135;SDS011;5622;50.840;4.948;2023-04-06T10:26:29;20.50;;;11.53;;
11135;SDS011;5622;50.840;4.948;2023-04-06T10:29:01;20.77;;;12.70;;
11135;SDS011;5622;50.840;4.948;2023-04-06T10:31:30;19.97;;;13.30;;
11135;SDS011;5622;50.840;4.948;2023-04-06T10:33:57;19.20;;;12.37;;
11135;SDS011;5622;50.840;4.948;2023-04-06T10:36:26;18.33;;;11.40;;
11135;SDS011;5622;50.840;4.948;2023-04-06T10:38:55;21.73;;;12.93;;
11135;SDS011;5622;50.840;4.948;2023-04-06T10:41:23;18.80;;;11.77;;
11135;SDS011;5622;50.840;4.948;2023-04-06T10:43:59;19.63;;;11.87;;
11135;SDS011;5622;50.840;4.948;2023-04-06T10:46:28;20.47;;;11.93;;
11135;SDS011;5622;50.840;4.948;2023-04-06T10:48:57;16.70;;;11.33;;
11135;SDS011;5622;50.840;4.948;2023-04-06T10:51:37;21.43;;;11.93;;
11135;SDS011;5622;50.840;4.948;2023-04-06T10:54:06;19.80;;;11.77;;
11135;SDS011;5622;50.840;4.948;2023-04-06T10:56:36;20.03;;;12.30;;
11135;SDS011;5622;50.840;4.948;2023-04-06T10:59:04;19.20;;;12.50;;
11135;SDS011;5622;50.840;4.948;2023-04-06T11:01:33;20.77;;;12.20;;
11135;SDS011;5622;50.840;4.948;2023-04-06T11:04:16;18.97;;;12.00;;
11135;SDS011;5622;50.840;4.948;2023-04-06T11:06:48;17.13;;;12.33;;
11135;SDS011;5622;50.840;4.948;2023-04-06T11:09:26;19.17;;;13.03;;
11135;SDS011;5622;50.840;4.948;2023-04-06T11:11:55;16.70;;;11.60;;
11135;SDS011;5622;50.840;4.948;2023-04-06T11:14:23;19.80;;;11.90;;
11135;SDS011;5622;50.840;4.948;2023-04-06T11:16:51;20.77;;;12.10;;
11135;SDS011;5622;50.840;4.948;2023-04-06T11:19:18;18.93;;;12.43;;
11135;SDS011;5622;50.840;4.948;2023-04-06T11:21:46;21.07;;;11.83;;
11135;SDS011;5622;50.840;4.948;2023-04-06T11:24:14;19.40;;;12.10;;
11135;SDS011;5622;50.840;4.948;2023-04-06T11:26:43;16.77;;;10.60;;
11135;SDS011;5622;50.840;4.948;2023-04-06T11:29:15;20.20;;;11.43;;
11135;SDS011;5622;50.840;4.948;2023-04-06T11:31:44;16.97;;;11.70;;
11135;SDS011;5622;50.840;4.948;2023-04-06T11:34:13;15.60;;;11.20;;
11135;SDS011;5622;50.840;4.948;2023-04-06T11:36:43;15.90;;;11.10;;
11135;SDS011;5622;50.840;4.948;2023-04-06T11:39:12;17.33;;;11.33;;
11135;SDS011;5622;50.840;4.948;2023-04-06T11:41:40;19.20;;;11.00;;
11135;SDS011;5622;50.840;4.948;2023-04-06T11:44:07;20.00;;;11.80;;
11135;SDS011;5622;50.840;4.948;2023-04-06T11:46:35;17.67;;;11.40;;
11135;SDS011;5622;50.840;4.948;2023-04-06T11:49:03;17.20;;;10.83;;
11135;SDS011;5622;50.840;4.948;2023-04-06T11:51:35;16.73;;;10.73;;
11135;SDS011;5622;50.840;4.948;2023-04-06T11:54:02;15.77;;;10.97;;
11135;SDS011;5622;50.840;4.948;2023-04-06T11:56:29;16.27;;;11.27;;
11135;SDS011;5622;50.840;4.948;2023-04-06T11:58:57;19.23;;;11.10;;
11135;SDS011;5622;50.840;4.948;2023-04-06T12:01:25;16.27;;;11.03;;
11135;SDS011;5622;50.840;4.948;2023-04-06T12:03:54;20.00;;;11.77;;
11135;SDS011;5622;50.840;4.948;2023-04-06T12:06:21;16.27;;;11.03;;
11135;SDS011;5622;50.840;4.948;2023-04-06T12:08:50;19.43;;;11.47;;
11135;SDS011;5622;50.840;4.948;2023-04-06T12:11:17;15.90;;;10.13;;
11135;SDS011;5622;50.840;4.948;2023-04-06T12:13:46;14.60;;;10.60;;
11135;SDS011;5622;50.840;4.948;2023-04-06T12:16:14;15.53;;;10.03;;
11135;SDS011;5622;50.840;4.948;2023-04-06T12:18:41;17.97;;;11.17;;
11135;SDS011;5622;50.840;4.948;2023-04-06T12:21:10;17.67;;;12.03;;
11135;SDS011;5622;50.840;4.948;2023-04-06T12:23:37;14.87;;;10.83;;
11135;SDS011;5622;50.840;4.948;2023-04-06T12:26:04;18.37;;;11.70;;
11135;SDS011;5622;50.840;4.948;2023-04-06T12:28:31;13.60;;;10.17;;
11135;SDS011;5622;50.840;4.948;2023-04-06T12:30:58;17.90;;;11.83;;
11135;SDS011;5622;50.840;4.948;2023-04-06T12:33:25;17.03;;;11.37;;
11135;SDS011;5622;50.840;4.948;2023-04-06T12:35:53;18.33;;;12.03;;
11135;SDS011;5622;50.840;4.948;2023-04-06T12:38:22;16.10;;;11.30;;
11135;SDS011;5622;50.840;4.948;2023-04-06T12:40:49;16.77;;;11.50;;
11135;SDS011;5622;50.840;4.948;2023-04-06T12:43:16;15.47;;;11.13;;
11135;SDS011;5622;50.840;4.948;2023-04-06T12:45:43;18.10;;;12.63;;
11135;SDS011;5622;50.840;4.948;2023-04-06T12:48:11;24.17;;;12.37;;
11135;SDS011;5622;50.840;4.948;2023-04-06T12:50:38;16.80;;;12.27;;
11135;SDS011;5622;50.840;4.948;2023-04-06T12:53:05;16.23;;;12.27;;
11135;SDS011;5622;50.840;4.948;2023-04-06T12:55:34;19.43;;;12.43;;
11135;SDS011;5622;50.840;4.948;2023-04-06T12:58:01;19.23;;;11.93;;
11135;SDS011;5622;50.840;4.948;2023-04-06T13:00:28;18.53;;;12.93;;
11135;SDS011;5622;50.840;4.948;2023-04-06T13:02:56;19.20;;;12.33;;
11135;SDS011;5622;50.840;4.948;2023-04-06T13:05:23;18.07;;;13.00;;
11135;SDS011;5622;50.840;4.948;2023-04-06T13:07:50;16.83;;;12.90;;
11135;SDS011;5622;50.840;4.948;2023-04-06T13:10:18;20.97;;;13.57;;
11135;SDS011;5622;50.840;4.948;2023-04-06T13:12:46;17.20;;;12.70;;
11135;SDS011;5622;50.840;4.948;2023-04-06T13:15:13;19.00;;;12.90;;
11135;SDS011;5622;50.840;4.948;2023-04-06T13:17:41;18.30;;;12.17;;
11135;SDS011;5622;50.840;4.948;2023-04-06T13:20:08;17.50;;;12.70;;
11135;SDS011;5622;50.840;4.948;2023-04-06T13:22:36;20.30;;;13.57;;
11135;SDS011;5622;50.840;4.948;2023-04-06T13:25:03;18.10;;;12.97;;
11135;SDS011;5622;50.840;4.948;2023-04-06T13:27:31;20.07;;;13.60;;
11135;SDS011;5622;50.840;4.948;2023-04-06T13:30:01;19.60;;;13.70;;
11135;SDS011;5622;50.840;4.948;2023-04-06T13:32:28;19.37;;;13.53;;
11135;SDS011;5622;50.840;4.948;2023-04-06T13:34:56;18.10;;;13.23;;
11135;SDS011;5622;50.840;4.948;2023-04-06T13:37:25;18.33;;;13.60;;
11135;SDS011;5622;50.840;4.948;2023-04-06T13:39:52;18.07;;;13.13;;
11135;SDS011;5622;50.840;4.948;2023-04-06T13:42:20;22.07;;;13.60;;
11135;SDS011;5622;50.840;4.948;2023-04-06T13:44:47;20.10;;;14.07;;
11135;SDS011;5622;50.840;4.948;2023-04-06T13:47:17;19.93;;;14.30;;
11135;SDS011;5622;50.840;4.948;2023-04-06T13:49:45;21.80;;;14.50;;
11135;SDS011;5622;50.840;4.948;2023-04-06T13:52:13;20.80;;;14.93;;
11135;SDS011;5622;50.840;4.948;2023-04-06T13:54:40;23.87;;;14.80;;
11135;SDS011;5622;50.840;4.948;2023-04-06T13:57:07;19.57;;;13.83;;
11135;SDS011;5622;50.840;4.948;2023-04-06T13:59:34;20.77;;;15.43;;
11135;SDS011;5622;50.840;4.948;2023-04-06T14:02:02;22.23;;;14.10;;
11135;SDS011;5622;50.840;4.948;2023-04-06T14:04:31;19.37;;;14.13;;
11135;SDS011;5622;50.840;4.948;2023-04-06T14:06:58;19.83;;;14.30;;
11135;SDS011;5622;50.840;4.948;2023-04-06T14:09:26;19.40;;;13.53;;
11135;SDS011;5622;50.840;4.948;2023-04-06T14:11:53;24.20;;;14.93;;
11135;SDS011;5622;50.840;4.948;2023-04-06T14:14:20;22.33;;;14.57;;
11135;SDS011;5622;50.840;4.948;2023-04-06T14:16:48;22.23;;;14.93;;
11135;SDS011;5622;50.840;4.948;2023-04-06T14:19:16;21.73;;;14.30;;
11135;SDS011;5622;50.840;4.948;2023-04-06T14:21:45;21.80;;;16.33;;
11135;SDS011;5622;50.840;4.948;2023-04-06T14:24:12;22.53;;;15.50;;
11135;SDS011;5622;50.840;4.948;2023-04-06T14:26:41;22.53;;;14.80;;
11135;SDS011;5622;50.840;4.948;2023-04-06T14:29:08;22.17;;;15.57;;
11135;SDS011;5622;50.840;4.948;2023-04-06T14:31:35;20.73;;;14.93;;
11135;SDS011;5622;50.840;4.948;2023-04-06T14:34:03;23.00;;;15.17;;
11135;SDS011;5622;50.840;4.948;2023-04-06T14:36:30;18.03;;;13.40;;
11135;SDS011;5622;50.840;4.948;2023-04-06T14:39:03;24.40;;;15.30;;
11135;SDS011;5622;50.840;4.948;2023-04-06T14:41:31;20.30;;;15.17;;